Whalan, Minnesota
Current Conditions -  °F | °C
As of 12:15 PM on Friday 19 Dec 2014 (Local Time) from KFKA Reporting Station
Overcast Overcast  
Wind Chill: 18°   Ceiling: 2000
Heat Index: 27°   Visibility: 10mi
Dew Point: 20°   Wind: 8mph
Humidity: 77%   Direction: 170°S
Pressure: 30.23"   Gusts: NA
Location:  43.7165°N, 91.9871°W
Report Text: KFKA 191815Z AUTO 17007KT 10SM OVC020 M03/M07 A3023 RMK AO2 T10301066
Loading
Personal Weather Stations






























Interactive Weather Map New forecast layout! Learn more

10-Day Weather Forecast

Advertisements
Track Severe Weather on mobile